WEATHER DATA

TODAY
Time Temp. Dewp. Hum. Bar.
01:02 0.2 -4.3 69 1020.5
01:11 0.1 -4.3 69 1020.3
01:21 0.1 -4.3 69 1020.2
01:32 0 -4.4 69 1020.3
01:42 0 -4.4 69 1020.3
01:51 0 -4.4 69 1020.2
02:01 -0.1 -4.5 69 1020.1
02:12 -0.2 -4.6 69 1019.9
02:21 -0.3 -4.7 69 1019.6
02:31 -0.3 -4.7 69 1019.4
02:42 -0.3 -4.7 69 1019.5
02:51 -0.2 -4.6 69 1019.4
03:01 -0.2 -4.6 69 1019.3
03:12 -0.1 -4.5 69 1019.2
03:22 0 -4.4 69 1019.1
03:31 0 -4.4 69 1019
03:42 0.1 -4.2 70 1018.9
03:52 0.2 -4.1 70 1018.7
04:02 0.3 -4 70 1018.5
04:12 0.5 -3.7 71 1018.6
04:22 0.8 -3.4 71 1018.5
04:32 1 -3.1 72 1018.4
04:41 1.1 -3 72 1018.3
04:52 1.2 -2.9 72 1018.1
05:02 1.3 -2.7 73 1018.1
05:12 1.4 -2.6 73 1017.9
05:22 1.4 -2.4 74 1017.9
05:32 1.4 -2.4 74 1017.8
05:42 1.4 -2.2 75 1017.7
05:52 1.3 -2.3 75 1017.5
06:02 1.2 -2.4 75 1017.3
06:12 1.3 -2.2 76 1017.3
06:22 1.4 -2.1 76 1017.3
06:32 1.5 -1.8 77 1017.2
06:42 1.8 -1.6 77 1017.1
06:52 2 -1.3 78 1017.1
07:02 2.3 -1 78 1016.8
07:13 2.4 -0.8 79 1016.7
07:22 2.6 -0.6 79 1016.7
07:32 2.8 -0.4 79 1016.7
07:43 3.1 0 80 1016.7
07:53 3.2 0.1 80 1016.6
08:02 3.3 0.2 80 1016.6
08:12 3.4 0.5 81 1016.3
08:23 3.5 0.6 81 1016.2
08:33 3.5 0.6 81 1016.2
08:43 3.5 0.6 81 1016.1
08:53 3.5 0.6 81 1016.1
09:03 3.4 0.5 81 1016
09:13 3.4 0.5 81 1016
09:23 3.5 0.6 81 1016
09:34 3.7 0.7 81 1015.8
09:43 3.9 0.9 81 1015.7
09:53 4.1 1.1 81 1015.7
10:04 4.3 1.3 81 1015.7
10:14 4.5 1.5 81 1015.8
10:24 4.7 1.7 81 1015.6
10:34 5 2 81 1015.5
10:44 5.2 2.2 81 1015.4
10:54 5.5 2.5 81 1015.3
11:04 5.6 2.6 81 1014.9
11:15 5.8 2.8 81 1014.8
11:25 5.9 2.7 80 1014.8
11:35 6 2.8 80 1014.6
11:44 6.1 2.7 79 1014.6
11:55 6.2 2.8 79 1014.5
12:05 6.4 3 79 1014.3
12:15 6.4 2.8 78 1014.2

DAY STATISTIC

2018-11-19
TEMPERATURE
AVERAGE
2.3
HIGH
6.4
12:05
LOW
-0.3
02:21
PRESSURE
AVERAGE
1017.3
HIGH
1020.5
01:02
LOW
1014.2
12:15
DEWPOINT
AVERAGE
-1.3
HIGH
3.0
12:05
LOW
-4.7
02:21
HUMIDITY
AVERAGE
76
HIGH
81
08:12
LOW
69
01:02
TEMPERATURE (°C)
LOW
-0.3
HIGH
6.4
AVERAGE
2.3
PRESSURE (hpa)
LOW
1014.2
HIGH
1020.5
AVERAGE
1017.3
DEVICE